createdAt,value
2019-02-25T00:01:31.954Z,102087.49
2019-02-25T00:04:02.416Z,102077.95
2019-02-25T00:06:32.868Z,102082.23
2019-02-25T00:09:04.479Z,102088.34
2019-02-25T00:11:35.012Z,102077.15
2019-02-25T00:14:05.450Z,102080.39
2019-02-25T00:16:36.432Z,102077.48
2019-02-25T00:19:06.866Z,102075.97
2019-02-25T00:21:37.306Z,102080.61
2019-02-25T00:24:07.801Z,102071.92
2019-02-25T00:26:38.247Z,102071.19
2019-02-25T00:29:09.088Z,102062.43
2019-02-25T00:31:39.608Z,102070.23
2019-02-25T00:34:10.046Z,102064.08
2019-02-25T00:36:40.481Z,102059.33
2019-02-25T00:39:11.038Z,102065.15
2019-02-25T00:41:41.471Z,102067.98
2019-02-25T00:44:11.911Z,102067.53
2019-02-25T00:46:42.408Z,102072.51
2019-02-25T00:49:14.115Z,102071.11
2019-02-25T00:51:44.555Z,102064.16
2019-02-25T00:54:15.059Z,102063.02
2019-02-25T00:56:45.493Z,102059.00
2019-02-25T00:59:16.563Z,102064.02
2019-02-25T01:01:47.046Z,102060.98
2019-02-25T01:04:17.485Z,102064.30
2019-02-25T01:06:48.302Z,102059.92
2019-02-25T01:09:19.179Z,102059.34
2019-02-25T01:11:49.622Z,102054.95
2019-02-25T01:14:20.066Z,102060.59
2019-02-25T01:16:50.560Z,102054.52
2019-02-25T01:19:20.991Z,102044.95
2019-02-25T01:21:51.424Z,102046.16
2019-02-25T01:24:21.911Z,102051.64
2019-02-25T01:26:52.350Z,102040.97
2019-02-25T01:29:22.886Z,102040.45
2019-02-25T01:31:53.420Z,102035.92
2019-02-25T01:34:23.957Z,102034.02
2019-02-25T01:36:54.388Z,102033.43
2019-02-25T01:39:24.887Z,102037.73
2019-02-25T01:41:55.313Z,102033.02
2019-02-25T01:44:25.744Z,102035.27
2019-02-25T01:46:56.277Z,102032.25
2019-02-25T01:49:27.102Z,102033.91
2019-02-25T01:51:57.551Z,102034.35
2019-02-25T01:54:28.413Z,102032.52
2019-02-25T01:56:59.003Z,102043.36
2019-02-25T01:59:29.481Z,102047.36
2019-02-25T02:01:59.977Z,102041.39
2019-02-25T02:04:30.410Z,102041.73
2019-02-25T02:07:00.851Z,102040.08
2019-02-25T02:09:31.372Z,102040.92
2019-02-25T02:12:01.813Z,102036.87
2019-02-25T02:14:32.304Z,102035.95
2019-02-25T02:17:02.742Z,102034.16
2019-02-25T02:19:33.182Z,102034.23
2019-02-25T02:22:03.674Z,102039.52
2019-02-25T02:24:34.108Z,102040.45
2019-02-25T02:27:04.919Z,102034.86
2019-02-25T02:29:35.570Z,102032.42
2019-02-25T02:32:06.422Z,102027.81
2019-02-25T02:34:36.888Z,102029.92
2019-02-25T02:37:07.374Z,102026.32
2019-02-25T02:39:37.804Z,102034.80
2019-02-25T02:42:13.429Z,102026.93
2019-02-25T02:44:44.738Z,102032.05
2019-02-25T02:47:34.704Z,102042.23
2019-02-25T02:50:06.766Z,102044.16
2019-02-25T02:52:37.474Z,102043.04
2019-02-25T02:55:08.838Z,102035.44
2019-02-25T02:57:39.686Z,102038.36
2019-02-25T03:00:14.069Z,102042.33
2019-02-25T03:02:44.614Z,102045.38
2019-02-25T03:05:17.667Z,102040.83
2019-02-25T03:07:48.129Z,102045.20
2019-02-25T03:10:19.687Z,102050.36
2019-02-25T03:12:50.127Z,102053.48
2019-02-25T03:15:22.069Z,102051.14
2019-02-25T03:17:53.327Z,102052.13
2019-02-25T03:20:23.754Z,102052.98
2019-02-25T03:22:54.253Z,102053.66
2019-02-25T03:25:24.689Z,102061.13
2019-02-25T03:27:55.118Z,102049.55
2019-02-25T03:30:25.600Z,102052.91
2019-02-25T03:32:56.071Z,102055.77
2019-02-25T03:35:26.507Z,102054.78
2019-02-25T03:37:57.216Z,102046.70
2019-02-25T03:40:27.659Z,102049.42
2019-02-25T03:42:58.092Z,102047.85
2019-02-25T03:45:28.571Z,102044.01
2019-02-25T03:47:59.001Z,102042.11
2019-02-25T03:50:29.530Z,102040.04
2019-02-25T03:53:00.085Z,102034.61
2019-02-25T03:55:30.624Z,102034.02
2019-02-25T03:58:01.081Z,102031.04
2019-02-25T04:00:31.553Z,102032.45
2019-02-25T04:03:02.453Z,102026.89
2019-02-25T04:05:33.475Z,102024.02
2019-02-25T04:08:03.965Z,102024.70
2019-02-25T04:10:34.419Z,102028.20
2019-02-25T04:13:04.852Z,102024.90
2019-02-25T04:15:38.983Z,102039.05
2019-02-25T04:18:09.412Z,102037.22
2019-02-25T04:20:39.843Z,102039.13
2019-02-25T04:23:10.333Z,102036.98
2019-02-25T04:25:40.770Z,102039.91
2019-02-25T04:28:11.209Z,102041.41
2019-02-25T04:30:41.769Z,102043.14
2019-02-25T04:33:13.273Z,102045.31
2019-02-25T04:35:43.723Z,102045.52
2019-02-25T04:38:14.403Z,102042.47
2019-02-25T04:40:44.843Z,102037.03
2019-02-25T04:43:16.278Z,102039.98
2019-02-25T04:45:47.129Z,102041.38
2019-02-25T04:48:17.629Z,102036.09
2019-02-25T04:50:48.433Z,102037.20
2019-02-25T04:53:18.919Z,102042.98
2019-02-25T04:55:49.351Z,102036.40
2019-02-25T04:58:19.789Z,102038.43
2019-02-25T05:00:50.669Z,102039.08
2019-02-25T05:03:21.210Z,102039.78
2019-02-25T05:05:51.803Z,102034.90
2019-02-25T05:08:22.556Z,102036.35
2019-02-25T05:10:53.361Z,102040.19
2019-02-25T05:13:24.132Z,102037.61
2019-02-25T05:15:54.997Z,102033.06
2019-02-25T05:18:25.423Z,102024.52
2019-02-25T05:20:55.863Z,102026.66
2019-02-25T05:23:26.342Z,102026.80
2019-02-25T05:25:57.208Z,102034.19
2019-02-25T05:28:27.643Z,102027.78
2019-02-25T05:30:58.126Z,102030.66
2019-02-25T05:33:28.576Z,102030.25
2019-02-25T05:35:59.012Z,102035.88
2019-02-25T05:38:29.522Z,102039.34
2019-02-25T05:41:00.372Z,102034.73
2019-02-25T05:43:30.805Z,102034.63
2019-02-25T05:46:01.301Z,102040.77
2019-02-25T05:48:31.750Z,102045.07
2019-02-25T05:51:02.191Z,102049.72
2019-02-25T05:53:32.669Z,102055.83
2019-02-25T05:56:03.572Z,102056.53
2019-02-25T05:58:34.008Z,102054.80
2019-02-25T06:01:05.463Z,102054.59
2019-02-25T06:03:36.385Z,102055.09
2019-02-25T06:06:06.843Z,102060.22
2019-02-25T06:08:37.313Z,102055.28
2019-02-25T06:11:07.750Z,102064.88
2019-02-25T06:13:38.582Z,102064.67
2019-02-25T06:16:09.452Z,102063.89
2019-02-25T06:18:40.331Z,102063.91
2019-02-25T06:21:10.766Z,102062.91
2019-02-25T06:23:41.247Z,102066.23
2019-02-25T06:26:11.739Z,102070.64
2019-02-25T06:28:42.448Z,102064.66
2019-02-25T06:31:13.347Z,102068.06
2019-02-25T06:33:43.786Z,102070.83
2019-02-25T06:36:14.213Z,102074.55
2019-02-25T06:38:44.732Z,102069.31
2019-02-25T06:41:15.177Z,102072.09
2019-02-25T06:43:45.622Z,102075.48
2019-02-25T06:46:16.113Z,102072.31
2019-02-25T06:48:46.620Z,102071.33
2019-02-25T06:51:17.062Z,102071.20
2019-02-25T06:53:47.544Z,102073.81
2019-02-25T06:56:18.371Z,102072.88
2019-02-25T06:58:48.838Z,102073.27
2019-02-25T07:01:19.322Z,102075.34
2019-02-25T07:04:08.693Z,102078.67
2019-02-25T07:06:53.256Z,102086.31
2019-02-25T07:09:39.505Z,102091.62
2019-02-25T07:12:21.946Z,102094.23
2019-02-25T07:15:11.347Z,102096.88
2019-02-25T07:18:03.949Z,102100.34
2019-02-25T07:20:43.549Z,102097.02
2019-02-25T07:23:22.958Z,102102.69
2019-02-25T07:26:11.198Z,102103.22
2019-02-25T07:29:09.657Z,102104.87
2019-02-25T07:31:48.506Z,102103.50
2019-02-25T07:34:41.941Z,102095.57
2019-02-25T07:37:37.406Z,102102.53
2019-02-25T07:40:26.953Z,102100.07
2019-02-25T07:43:12.337Z,102101.80
2019-02-25T07:45:56.992Z,102102.50
2019-02-25T07:48:34.540Z,102106.70
2019-02-25T07:51:23.948Z,102103.50
2019-02-25T07:54:06.950Z,102101.04
2019-02-25T07:56:56.371Z,102100.04
2019-02-25T07:59:35.101Z,102099.11
2019-02-25T08:02:24.444Z,102096.62
2019-02-25T08:05:12.591Z,102101.19
2019-02-25T08:08:01.991Z,102103.89
2019-02-25T08:11:09.616Z,102097.69
2019-02-25T08:14:04.601Z,102109.92
2019-02-25T08:16:53.003Z,102114.19
2019-02-25T08:19:57.741Z,102112.27
2019-02-25T08:22:46.056Z,102113.66
2019-02-25T08:25:41.573Z,102122.06
2019-02-25T08:28:30.162Z,102117.23
2019-02-25T08:31:22.747Z,102115.08
2019-02-25T08:34:18.424Z,102115.25
2019-02-25T08:37:23.145Z,102124.08
2019-02-25T08:40:19.840Z,102116.47
2019-02-25T08:42:52.161Z,102119.90
2019-02-25T08:45:40.448Z,102113.78
2019-02-25T08:48:21.849Z,102118.83
2019-02-25T08:50:52.283Z,102121.92
2019-02-25T08:53:22.728Z,102129.44
2019-02-25T08:55:53.610Z,102130.81
2019-02-25T08:58:24.042Z,102144.23
2019-02-25T09:00:54.508Z,102150.09
2019-02-25T09:03:24.944Z,102152.84
2019-02-25T09:05:55.416Z,102146.34
2019-02-25T09:08:25.863Z,102146.61
2019-02-25T09:10:56.661Z,102151.38
2019-02-25T09:13:27.144Z,102150.64
2019-02-25T09:15:57.573Z,102148.88
2019-02-25T09:18:28.003Z,102140.98
2019-02-25T09:20:58.490Z,102142.13
2019-02-25T09:23:28.925Z,102140.09
2019-02-25T09:25:59.362Z,102141.69
2019-02-25T09:28:29.821Z,102151.75
2019-02-25T09:31:00.260Z,102148.67
2019-02-25T09:33:30.737Z,102151.77
2019-02-25T09:36:01.178Z,102150.39
2019-02-25T09:38:31.618Z,102145.58
2019-02-25T09:41:02.086Z,102150.98
2019-02-25T09:43:32.606Z,102156.01
2019-02-25T09:46:04.335Z,102157.16
2019-02-25T09:48:34.773Z,102147.91
2019-02-25T09:51:05.585Z,102148.24
2019-02-25T09:53:36.091Z,102147.98
2019-02-25T09:56:06.533Z,102151.77
2019-02-25T09:58:37.026Z,102154.90
2019-02-25T10:01:07.792Z,102148.97
2019-02-25T10:03:38.646Z,102142.63
2019-02-25T10:06:09.125Z,102144.27
2019-02-25T10:08:39.561Z,102143.52
2019-02-25T10:11:10.390Z,102147.33
2019-02-25T10:13:40.855Z,102140.99
2019-02-25T10:16:11.294Z,102132.71
2019-02-25T10:18:41.767Z,102126.03
2019-02-25T10:21:12.213Z,102129.59
2019-02-25T10:23:42.699Z,102132.97
2019-02-25T10:26:13.138Z,102133.19
2019-02-25T10:28:43.588Z,102130.46
2019-02-25T10:31:15.374Z,102130.14
2019-02-25T10:33:46.208Z,102117.06
2019-02-25T10:36:16.946Z,102122.98
2019-02-25T10:38:47.805Z,102120.68
2019-02-25T10:41:19.677Z,102126.16
2019-02-25T10:43:50.704Z,102123.08
2019-02-25T10:46:21.190Z,102120.05
2019-02-25T10:48:54.438Z,102114.76
2019-02-25T10:51:23.864Z,102114.20
2019-02-25T10:53:54.334Z,102109.09
2019-02-25T10:56:31.958Z,102110.63
2019-02-25T10:59:04.513Z,102101.84
2019-02-25T11:01:34.661Z,102098.41
2019-02-25T11:04:05.245Z,102085.23
2019-02-25T11:06:37.575Z,102084.24
2019-02-25T11:09:27.870Z,102084.13
2019-02-25T11:12:00.127Z,102086.20
2019-02-25T11:14:32.894Z,102086.42
2019-02-25T11:17:03.039Z,102078.94
2019-02-25T11:19:33.481Z,102069.42
2019-02-25T11:22:05.537Z,102078.03
2019-02-25T11:24:36.523Z,102069.58
2019-02-25T11:27:07.400Z,102059.07
2019-02-25T11:29:40.524Z,102048.90
2019-02-25T11:32:10.570Z,102048.34
2019-02-25T11:34:41.014Z,102048.34
2019-02-25T11:37:11.921Z,102044.50
2019-02-25T11:39:42.540Z,102043.73
2019-02-25T11:42:17.414Z,102035.69
2019-02-25T11:44:46.206Z,102029.78
2019-02-25T11:47:16.654Z,102032.06
2019-02-25T11:49:47.094Z,102029.08
2019-02-25T11:52:17.589Z,102024.80
2019-02-25T11:54:48.037Z,102018.95
2019-02-25T11:57:18.488Z,102011.17
2019-02-25T11:59:48.985Z,101995.78
2019-02-25T12:02:25.439Z,101996.52
2019-02-25T12:04:51.731Z,101997.97
2019-02-25T12:07:22.215Z,101987.06
2019-02-25T12:09:52.926Z,101982.97
2019-02-25T12:12:23.721Z,101972.14
2019-02-25T12:14:54.989Z,101965.64
2019-02-25T12:17:25.438Z,101957.48
2019-02-25T12:19:55.888Z,101962.22
2019-02-25T12:22:26.380Z,101962.78
2019-02-25T12:24:56.827Z,101955.86
2019-02-25T12:27:27.542Z,101955.75
2019-02-25T12:29:58.045Z,101956.47
2019-02-25T12:32:28.494Z,101962.95
2019-02-25T12:34:58.930Z,101958.25
2019-02-25T12:37:29.409Z,101954.81
2019-02-25T12:39:59.851Z,101956.48
2019-02-25T12:42:30.296Z,101953.73
2019-02-25T12:45:01.563Z,101944.95
2019-02-25T12:47:32.995Z,101940.92
2019-02-25T12:50:03.462Z,101940.31
2019-02-25T12:52:33.954Z,101934.61
2019-02-25T12:55:04.914Z,101938.73
2019-02-25T12:57:35.550Z,101934.32
2019-02-25T13:00:07.277Z,101947.88
2019-02-25T13:02:37.716Z,101929.17
2019-02-25T13:05:09.715Z,101927.95
2019-02-25T13:07:40.211Z,101930.66
2019-02-25T13:10:12.865Z,101934.26
2019-02-25T13:12:43.300Z,101930.84
2019-02-25T13:15:14.854Z,101928.87
2019-02-25T13:17:45.298Z,101924.50
2019-02-25T13:20:15.840Z,101923.34
2019-02-25T13:22:46.324Z,101920.52
2019-02-25T13:25:16.986Z,101918.13
2019-02-25T13:27:47.844Z,101909.05
2019-02-25T13:30:19.026Z,101920.28
2019-02-25T13:32:49.464Z,101912.89
2019-02-25T13:35:19.963Z,101911.61
2019-02-25T13:37:50.420Z,101906.16
2019-02-25T13:40:21.721Z,101904.52
2019-02-25T13:42:52.394Z,101905.17
2019-02-25T13:45:23.144Z,101899.75
2019-02-25T13:47:53.612Z,101894.25
2019-02-25T13:50:24.151Z,101892.59
2019-02-25T13:52:54.605Z,101895.48
2019-02-25T13:55:25.465Z,101898.86
2019-02-25T13:57:57.657Z,101909.53
2019-02-25T14:00:28.747Z,101908.00
2019-02-25T14:02:59.362Z,101907.64
2019-02-25T14:05:30.157Z,101911.53
2019-02-25T14:08:00.593Z,101912.59
2019-02-25T14:10:31.167Z,101914.91
2019-02-25T14:13:02.059Z,101917.33
2019-02-25T14:15:32.509Z,101916.84
2019-02-25T14:18:03.012Z,101911.61
2019-02-25T14:20:33.547Z,101911.95
2019-02-25T14:23:04.163Z,101908.97
2019-02-25T14:25:34.966Z,101904.05
2019-02-25T14:28:08.293Z,101905.09
2019-02-25T14:30:39.406Z,101905.05
2019-02-25T14:33:12.536Z,101906.88
2019-02-25T14:35:42.473Z,101913.28
2019-02-25T14:38:17.339Z,101907.41
2019-02-25T14:40:47.130Z,101901.39
2019-02-25T14:43:20.648Z,101894.09
2019-02-25T14:45:53.830Z,101886.12
2019-02-25T14:48:23.525Z,101896.00
2019-02-25T14:50:55.041Z,101892.44
2019-02-25T14:53:25.522Z,101896.16
2019-02-25T14:55:58.145Z,101894.48
2019-02-25T14:58:31.389Z,101887.69
2019-02-25T15:01:00.281Z,101883.30
2019-02-25T15:03:30.940Z,101881.75
2019-02-25T15:06:01.374Z,101882.76
2019-02-25T15:08:32.157Z,101883.27
2019-02-25T15:11:04.454Z,101878.52
2019-02-25T15:13:35.425Z,101875.45
2019-02-25T15:16:06.922Z,101872.73
2019-02-25T15:18:37.792Z,101868.29
2019-02-25T15:21:09.087Z,101868.29
2019-02-25T15:23:40.442Z,101865.57
2019-02-25T15:26:11.054Z,101868.19
2019-02-25T15:28:41.861Z,101859.88
2019-02-25T15:31:14.134Z,101861.89
2019-02-25T15:33:45.128Z,101854.23
2019-02-25T15:36:17.797Z,101858.03
2019-02-25T15:38:47.740Z,101849.52
2019-02-25T15:41:18.245Z,101850.47
2019-02-25T15:43:48.705Z,101846.65
2019-02-25T15:46:21.583Z,101843.00
2019-02-25T15:48:51.717Z,101843.09
2019-02-25T15:51:22.225Z,101848.89
2019-02-25T15:53:54.002Z,101838.02
2019-02-25T15:56:25.354Z,101844.81
2019-02-25T15:58:55.812Z,101847.19
2019-02-25T16:01:26.725Z,101844.66
2019-02-25T16:04:02.200Z,101848.37
2019-02-25T16:06:31.349Z,101849.47
2019-02-25T16:09:03.045Z,101847.48
2019-02-25T16:11:33.598Z,101846.72
2019-02-25T16:14:05.271Z,101848.40
2019-02-25T16:16:37.453Z,101844.20
2019-02-25T16:19:07.960Z,101850.53
2019-02-25T16:21:40.937Z,101850.57
2019-02-25T16:24:12.332Z,101853.48
2019-02-25T16:26:42.850Z,101858.34
2019-02-25T16:29:13.490Z,101862.52
2019-02-25T16:31:44.455Z,101868.13
2019-02-25T16:34:16.437Z,101869.16
2019-02-25T16:36:51.392Z,101873.81
2019-02-25T16:39:19.715Z,101868.20
2019-02-25T16:41:50.182Z,101872.34
2019-02-25T16:44:21.055Z,101873.05
2019-02-25T16:46:54.056Z,101874.23
2019-02-25T16:49:25.158Z,101880.81
2019-02-25T16:51:59.776Z,101874.81
2019-02-25T16:54:31.198Z,101880.63
2019-02-25T16:57:01.751Z,101875.59
2019-02-25T16:59:33.463Z,101877.02
2019-02-25T17:02:04.666Z,101879.03
2019-02-25T17:04:35.687Z,101874.33
2019-02-25T17:07:06.146Z,101882.30
2019-02-25T17:09:38.689Z,101882.47
2019-02-25T17:12:08.978Z,101878.95
2019-02-25T17:14:40.549Z,101877.27
2019-02-25T17:17:11.475Z,101878.50
2019-02-25T17:19:42.535Z,101881.58
2019-02-25T17:22:13.071Z,101882.58
2019-02-25T17:24:43.535Z,101886.77
2019-02-25T17:27:14.331Z,101881.43
2019-02-25T17:29:44.796Z,101886.91
2019-02-25T17:32:16.761Z,101886.94
2019-02-25T17:34:47.929Z,101880.20
2019-02-25T17:37:18.395Z,101883.04
2019-02-25T17:39:48.896Z,101886.79
2019-02-25T17:42:20.152Z,101876.19
2019-02-25T17:44:53.459Z,101873.73
2019-02-25T17:47:24.250Z,101882.25
2019-02-25T17:49:56.165Z,101881.16
2019-02-25T17:52:28.139Z,101880.38
2019-02-25T17:54:58.993Z,101885.10
2019-02-25T17:57:32.243Z,101883.77
2019-02-25T18:00:06.416Z,101892.52
2019-02-25T18:02:36.102Z,101893.84
2019-02-25T18:05:09.412Z,101892.43
2019-02-25T18:07:41.706Z,101897.27
2019-02-25T18:10:13.174Z,101892.47
2019-02-25T18:15:07.324Z,101908.14
2019-02-25T18:17:38.876Z,101907.22
2019-02-25T18:20:11.929Z,101910.72
2019-02-25T18:22:43.636Z,101912.34
2019-02-25T18:25:14.795Z,101912.25
2019-02-25T18:27:49.465Z,101913.53
2019-02-25T18:30:23.518Z,101912.88
2019-02-25T18:32:55.204Z,101913.41
2019-02-25T18:35:26.720Z,101917.05
2019-02-25T18:37:58.517Z,101910.36
2019-02-25T18:40:30.315Z,101907.16
2019-02-25T18:43:02.369Z,101910.30
2019-02-25T18:45:35.433Z,101911.09
2019-02-25T18:48:07.385Z,101913.59
2019-02-25T18:50:39.484Z,101909.70
2019-02-25T18:53:10.541Z,101908.44
2019-02-25T18:55:41.392Z,101905.95
2019-02-25T18:58:14.227Z,101902.31
2019-02-25T19:00:51.375Z,101901.73
2019-02-25T19:03:42.501Z,101897.64
2019-02-25T19:06:15.018Z,101898.35
2019-02-25T19:08:47.327Z,101888.64
2019-02-25T19:11:18.971Z,101887.69
2019-02-25T19:13:52.052Z,101890.04
2019-02-25T19:16:24.371Z,101883.93
2019-02-25T19:18:54.966Z,101889.33
2019-02-25T19:21:27.217Z,101885.84
2019-02-25T19:23:57.598Z,101886.12
2019-02-25T19:26:30.281Z,101886.20
2019-02-25T19:29:01.141Z,101882.91
2019-02-25T19:31:31.614Z,101893.53
2019-02-25T19:34:02.856Z,101890.13
2019-02-25T19:36:36.676Z,101887.95
2019-02-25T19:39:11.878Z,101892.27
2019-02-25T19:41:45.082Z,101884.77
2019-02-25T19:44:15.086Z,101887.16
2019-02-25T19:46:48.041Z,101894.98
2019-02-25T19:49:18.913Z,101887.17
2019-02-25T19:51:52.196Z,101889.73
2019-02-25T19:54:34.142Z,101888.22
2019-02-25T19:57:03.334Z,101885.69
2019-02-25T19:59:35.272Z,101888.73
2019-02-25T20:02:06.446Z,101880.22
2019-02-25T20:04:37.741Z,101879.00
2019-02-25T20:07:09.092Z,101880.31
2019-02-25T20:09:41.193Z,101881.84
2019-02-25T20:12:11.819Z,101883.08
2019-02-25T20:14:42.629Z,101872.03
2019-02-25T20:17:13.411Z,101860.53
2019-02-25T20:19:45.727Z,101851.30
2019-02-25T20:22:18.418Z,101852.73
2019-02-25T20:24:50.626Z,101846.26
2019-02-25T20:27:23.932Z,101839.11
2019-02-25T20:29:55.863Z,101851.66
2019-02-25T20:32:27.968Z,101851.86
2019-02-25T20:35:00.531Z,101852.34
2019-02-25T20:37:31.422Z,101852.73
2019-02-25T20:40:05.429Z,101851.30
2019-02-25T20:42:37.026Z,101856.41
2019-02-25T20:45:10.156Z,101857.75
2019-02-25T20:47:40.653Z,101854.22
2019-02-25T20:50:14.636Z,101848.89
2019-02-25T20:52:45.266Z,101847.81
2019-02-25T20:55:17.857Z,101860.28
2019-02-25T20:57:48.323Z,101870.45
2019-02-25T21:00:20.031Z,101872.17
2019-02-25T21:02:50.581Z,101877.75
2019-02-25T21:05:22.743Z,101888.05
2019-02-25T21:07:55.473Z,101882.72
2019-02-25T21:10:29.302Z,101883.56
2019-02-25T21:13:00.060Z,101885.14
2019-02-25T21:15:33.461Z,101887.20
2019-02-25T21:18:05.272Z,101893.07
2019-02-25T21:20:36.391Z,101893.75
2019-02-25T21:23:10.158Z,101891.59
2019-02-25T21:25:40.809Z,101890.47
2019-02-25T21:28:11.688Z,101893.55
2019-02-25T21:30:45.550Z,101897.38
2019-02-25T21:33:17.393Z,101903.32
2019-02-25T21:35:46.511Z,101898.48
2019-02-25T21:38:16.978Z,101899.41
2019-02-25T21:40:48.369Z,101891.14
2019-02-25T21:43:21.117Z,101886.02
2019-02-25T21:45:54.276Z,101887.78
2019-02-25T21:48:27.538Z,101883.67
2019-02-25T21:51:02.321Z,101881.30
2019-02-25T21:53:30.584Z,101881.66
2019-02-25T21:56:04.637Z,101870.67
2019-02-25T21:58:33.503Z,101873.33
2019-02-25T22:01:04.133Z,101876.72
2019-02-25T22:04:28.559Z,101882.81
2019-02-25T22:07:02.156Z,101874.32
2019-02-25T22:09:36.936Z,101866.47
2019-02-25T22:12:04.543Z,101860.85
2019-02-25T22:14:34.860Z,101854.12
2019-02-25T22:17:05.206Z,101847.66
2019-02-25T22:19:39.089Z,101840.31
2019-02-25T22:22:07.649Z,101831.00
2019-02-25T22:24:38.777Z,101827.65
2019-02-25T22:27:11.820Z,101823.14
2019-02-25T22:29:43.075Z,101818.33
2019-02-25T22:32:14.412Z,101822.20
2019-02-25T22:34:44.794Z,101825.88
2019-02-25T22:37:18.900Z,101827.30
2019-02-25T22:39:48.359Z,101825.88
2019-02-25T22:42:19.190Z,101825.97
2019-02-25T22:44:50.054Z,101829.64
2019-02-25T22:47:23.025Z,101828.28
2019-02-25T22:49:53.453Z,101836.18
2019-02-25T22:52:26.283Z,101836.58
2019-02-25T22:54:55.830Z,101833.84
2019-02-25T22:57:27.983Z,101830.56
2019-02-25T22:59:58.457Z,101827.86
2019-02-25T23:02:28.816Z,101836.24
2019-02-25T23:04:59.426Z,101828.01
2019-02-25T23:07:29.773Z,101825.41
2019-02-25T23:10:00.123Z,101824.73
2019-02-25T23:12:31.103Z,101824.20
2019-02-25T23:15:03.847Z,101823.48
2019-02-25T23:17:35.690Z,101827.33
2019-02-25T23:20:09.390Z,101830.37
2019-02-25T23:22:40.130Z,101829.92
2019-02-25T23:25:10.569Z,101827.09
2019-02-25T23:27:41.098Z,101830.94
2019-02-25T23:30:11.590Z,101825.55
2019-02-25T23:32:42.585Z,101820.33
2019-02-25T23:35:15.601Z,101817.11
2019-02-25T23:37:49.046Z,101820.21
2019-02-25T23:40:17.699Z,101817.33
2019-02-25T23:42:49.120Z,101814.45
2019-02-25T23:45:22.489Z,101815.69
2019-02-25T23:47:55.122Z,101812.67
2019-02-25T23:50:25.702Z,101809.39
2019-02-25T23:52:56.195Z,101805.11
2019-02-25T23:55:27.764Z,101806.34
2019-02-25T23:57:58.825Z,101812.19
